Mid Fortune — ZGCG8 — position and weather

sailwx.info

Track history (hours):
 
Tides and Currents Weather Stations Pressure Air Temp Water Temp Dewpoint Dewpoint Depression Visibility Wind Speed Wind Dir Waves Ship Positions

Mid Fortune

Last reported at 2017-Feb-11 22:33 UTC. Time now 2017-Feb-20 14:00 UTC.
Position N 01°56' E 102°17'.
Warning: this ship's position is 8 days out of date.

Length 147 m; draft 8.2 m.

Type: Ship. MMSI: 319182000.

Date/timePositionNaut miles runAvg speedWind from/ knotsBaromVisibWave heightAir tempDewpointWater temp
2017-Feb-11 22:33N 01°56' E 102°17'1111.2
2017-Feb-11 21:33N 01°51' E 102°28'1712.3
2017-Feb-11 20:10N 01°45' E 102°43'4311.4
2017-Feb-11 16:23N 01°20' E 103°18'8 9.8
2017-Feb-11 15:33N 01°14' E 103°24'1010.3
2017-Feb-11 14:33N 01°12' E 103°34'4 3.8
2017-Feb-11 13:25N 01°13' E 103°39'0 0.0
2017-Feb-11 12:22N 01°13' E 103°39'0 0.0
2017-Feb-11 11:31N 01°13' E 103°39'0 0.0
2017-Feb-11 10:31N 01°13' E 103°39'0 0.0
2017-Feb-11 09:31N 01°13' E 103°39'0 0.0
2017-Feb-11 08:31N 01°13' E 103°39'0 0.0
2017-Feb-11 07:28N 01°13' E 103°39'0 0.1
2017-Feb-11 06:25N 01°13' E 103°38'0 0.1
2017-Feb-11 05:31N 01°13' E 103°38'0 0.1
2017-Feb-11 04:31N 01°14' E 103°39'0 0.0
2017-Feb-11 03:31N 01°14' E 103°39'0 0.1
2017-Feb-11 02:31N 01°13' E 103°39'0 0.1
2017-Feb-11 01:31N 01°13' E 103°39'0 0.0
2017-Feb-11 00:31N 01°13' E 103°39'0 0.0
2017-Feb-10 23:28N 01°13' E 103°39'0 0.0
2017-Feb-10 22:31N 01°13' E 103°39'0 0.0
2017-Feb-10 21:31N 01°13' E 103°39'0 0.1
2017-Feb-10 20:31N 01°13' E 103°39'0 0.1
2017-Feb-10 19:31N 01°13' E 103°39'0 0.0
2017-Feb-10 18:31N 01°13' E 103°39'0 0.0
2017-Feb-10 17:31N 01°13' E 103°39'0 0.0
2017-Feb-10 16:31N 01°13' E 103°39'0 0.0
2017-Feb-10 15:22N 01°13' E 103°39'0 0.0
2017-Feb-10 14:31N 01°13' E 103°39'0 0.0
2017-Feb-10 13:13N 01°13' E 103°39'0 0.0
2017-Feb-10 12:31N 01°13' E 103°39'4 4.0
2017-Feb-10 11:33N 01°10' E 103°41'7 6.7
2017-Feb-10 10:33N 01°10' E 103°48'7 7.4
2017-Feb-10 09:33N 01°14' E 103°54'  
Track history (hours):
 
Tides and Currents Weather Stations Pressure Air Temp Water Temp Dewpoint Dewpoint Depression Visibility Wind Speed Wind Dir Waves Ship Positions

Mid Fortune

Last reported at 2017-Feb-11 22:33 UTC. Time now 2017-Feb-20 14:00 UTC.
Position N 01°56' E 102°17'.
Warning: this ship's position is 8 days out of date.

Length 147 m; draft 8.2 m.

Type: Ship. MMSI: 319182000.

Date/timePositionNaut miles runAvg speedWind from/ knotsBaromVisibWave heightAir tempDewpointWater temp
2017-Feb-11 22:33N 01°56' E 102°17'1111.2
2017-Feb-11 21:33N 01°51' E 102°28'1712.3
2017-Feb-11 20:10N 01°45' E 102°43'4311.4
2017-Feb-11 16:23N 01°20' E 103°18'8 9.8
2017-Feb-11 15:33N 01°14' E 103°24'1010.3
2017-Feb-11 14:33N 01°12' E 103°34'4 3.8
2017-Feb-11 13:25N 01°13' E 103°39'0 0.0
2017-Feb-11 12:22N 01°13' E 103°39'0 0.0
2017-Feb-11 11:31N 01°13' E 103°39'0 0.0
2017-Feb-11 10:31N 01°13' E 103°39'0 0.0
2017-Feb-11 09:31N 01°13' E 103°39'0 0.0
2017-Feb-11 08:31N 01°13' E 103°39'0 0.0
2017-Feb-11 07:28N 01°13' E 103°39'0 0.1
2017-Feb-11 06:25N 01°13' E 103°38'0 0.1
2017-Feb-11 05:31N 01°13' E 103°38'0 0.1
2017-Feb-11 04:31N 01°14' E 103°39'0 0.0
2017-Feb-11 03:31N 01°14' E 103°39'0 0.1
2017-Feb-11 02:31N 01°13' E 103°39'0 0.1
2017-Feb-11 01:31N 01°13' E 103°39'0 0.0
2017-Feb-11 00:31N 01°13' E 103°39'0 0.0
2017-Feb-10 23:28N 01°13' E 103°39'0 0.0
2017-Feb-10 22:31N 01°13' E 103°39'0 0.0
2017-Feb-10 21:31N 01°13' E 103°39'0 0.1
2017-Feb-10 20:31N 01°13' E 103°39'0 0.1
2017-Feb-10 19:31N 01°13' E 103°39'0 0.0
2017-Feb-10 18:31N 01°13' E 103°39'0 0.0
2017-Feb-10 17:31N 01°13' E 103°39'0 0.0
2017-Feb-10 16:31N 01°13' E 103°39'0 0.0
2017-Feb-10 15:22N 01°13' E 103°39'0 0.0
2017-Feb-10 14:31N 01°13' E 103°39'0 0.0
2017-Feb-10 13:13N 01°13' E 103°39'0 0.0
2017-Feb-10 12:31N 01°13' E 103°39'4 4.0
2017-Feb-10 11:33N 01°10' E 103°41'7 6.7
2017-Feb-10 10:33N 01°10' E 103°48'7 7.4
2017-Feb-10 09:33N 01°14' E 103°54'  

Dump ship's entire track history